sensor_id;sensor_type;location;lat;lon;timestamp;temperature;humidity
3198;DHT22;1611;49.394;11.136;2022-09-13T00:00:19;13.70;73.70
3198;DHT22;1611;49.394;11.136;2022-09-13T00:02:46;13.70;73.70
3198;DHT22;1611;49.394;11.136;2022-09-13T00:05:13;13.70;73.80
3198;DHT22;1611;49.394;11.136;2022-09-13T00:07:40;13.70;73.70
3198;DHT22;1611;49.394;11.136;2022-09-13T00:10:07;13.70;73.80
3198;DHT22;1611;49.394;11.136;2022-09-13T00:12:35;13.70;73.80
3198;DHT22;1611;49.394;11.136;2022-09-13T00:15:02;13.70;73.60
3198;DHT22;1611;49.394;11.136;2022-09-13T00:17:29;13.70;73.40
3198;DHT22;1611;49.394;11.136;2022-09-13T00:19:56;13.70;73.40
3198;DHT22;1611;49.394;11.136;2022-09-13T00:22:23;13.60;72.90
3198;DHT22;1611;49.394;11.136;2022-09-13T00:24:49;13.60;72.90
3198;DHT22;1611;49.394;11.136;2022-09-13T00:27:16;13.60;73.10
3198;DHT22;1611;49.394;11.136;2022-09-13T00:29:44;13.60;73.40
3198;DHT22;1611;49.394;11.136;2022-09-13T00:32:11;13.50;73.20
3198;DHT22;1611;49.394;11.136;2022-09-13T00:34:38;13.50;73.20
3198;DHT22;1611;49.394;11.136;2022-09-13T00:37:05;13.50;72.90
3198;DHT22;1611;49.394;11.136;2022-09-13T00:39:33;13.50;73.00
3198;DHT22;1611;49.394;11.136;2022-09-13T00:42:00;13.40;73.10
3198;DHT22;1611;49.394;11.136;2022-09-13T00:44:51;13.40;73.00
3198;DHT22;1611;49.394;11.136;2022-09-13T00:47:25;13.40;72.90
3198;DHT22;1611;49.394;11.136;2022-09-13T00:49:56;13.40;73.10
3198;DHT22;1611;49.394;11.136;2022-09-13T00:52:25;13.30;73.00
3198;DHT22;1611;49.394;11.136;2022-09-13T00:54:59;13.40;73.20
3198;DHT22;1611;49.394;11.136;2022-09-13T00:57:28;13.30;73.40
3198;DHT22;1611;49.394;11.136;2022-09-13T01:00:01;13.30;73.50
3198;DHT22;1611;49.394;11.136;2022-09-13T01:02:33;13.30;73.50
3198;DHT22;1611;49.394;11.136;2022-09-13T01:05:01;13.30;73.60
3198;DHT22;1611;49.394;11.136;2022-09-13T01:07:28;13.30;73.90
3198;DHT22;1611;49.394;11.136;2022-09-13T01:09:55;13.30;73.80
3198;DHT22;1611;49.394;11.136;2022-09-13T01:12:29;13.30;74.10
3198;DHT22;1611;49.394;11.136;2022-09-13T01:15:00;13.20;74.00
3198;DHT22;1611;49.394;11.136;2022-09-13T01:17:30;13.20;73.90
3198;DHT22;1611;49.394;11.136;2022-09-13T01:19:59;13.20;74.00
3198;DHT22;1611;49.394;11.136;2022-09-13T01:25:56;13.20;73.80
3198;DHT22;1611;49.394;11.136;2022-09-13T01:28:55;13.20;73.70
3198;DHT22;1611;49.394;11.136;2022-09-13T01:31:32;13.20;73.60
3198;DHT22;1611;49.394;11.136;2022-09-13T01:34:10;13.20;73.90
3198;DHT22;1611;49.394;11.136;2022-09-13T01:36:59;13.20;73.80
3198;DHT22;1611;49.394;11.136;2022-09-13T01:39:38;13.10;73.90
3198;DHT22;1611;49.394;11.136;2022-09-13T01:42:17;13.10;74.00
3198;DHT22;1611;49.394;11.136;2022-09-13T01:45:02;13.10;74.10
3198;DHT22;1611;49.394;11.136;2022-09-13T01:47:39;13.10;74.10
3198;DHT22;1611;49.394;11.136;2022-09-13T01:50:15;13.10;74.10
3198;DHT22;1611;49.394;11.136;2022-09-13T01:52:49;13.10;74.20
3198;DHT22;1611;49.394;11.136;2022-09-13T01:55:25;13.10;74.20
3198;DHT22;1611;49.394;11.136;2022-09-13T01:58:00;13.10;74.20
3198;DHT22;1611;49.394;11.136;2022-09-13T02:00:33;13.10;74.30
3198;DHT22;1611;49.394;11.136;2022-09-13T02:03:04;13.10;74.40
3198;DHT22;1611;49.394;11.136;2022-09-13T02:05:36;13.10;74.60
3198;DHT22;1611;49.394;11.136;2022-09-13T02:08:09;13.00;74.60
3198;DHT22;1611;49.394;11.136;2022-09-13T02:10:41;13.10;74.60
3198;DHT22;1611;49.394;11.136;2022-09-13T02:13:14;13.00;74.70
3198;DHT22;1611;49.394;11.136;2022-09-13T02:15:45;13.00;74.90
3198;DHT22;1611;49.394;11.136;2022-09-13T02:18:16;13.00;74.90
3198;DHT22;1611;49.394;11.136;2022-09-13T02:20:49;13.00;74.80
3198;DHT22;1611;49.394;11.136;2022-09-13T02:23:21;13.00;75.10
3198;DHT22;1611;49.394;11.136;2022-09-13T02:25:50;13.00;74.90
3198;DHT22;1611;49.394;11.136;2022-09-13T02:28:21;13.00;75.10
3198;DHT22;1611;49.394;11.136;2022-09-13T02:30:52;13.00;74.90
3198;DHT22;1611;49.394;11.136;2022-09-13T02:33:25;12.90;75.00
3198;DHT22;1611;49.394;11.136;2022-09-13T02:35:58;12.90;74.90
3198;DHT22;1611;49.394;11.136;2022-09-13T02:38:30;12.90;74.90
3198;DHT22;1611;49.394;11.136;2022-09-13T02:41:01;12.90;75.20
3198;DHT22;1611;49.394;11.136;2022-09-13T02:43:34;12.90;75.60
3198;DHT22;1611;49.394;11.136;2022-09-13T02:46:12;12.90;75.60
3198;DHT22;1611;49.394;11.136;2022-09-13T02:48:51;12.90;75.60
3198;DHT22;1611;49.394;11.136;2022-09-13T02:51:28;12.90;75.70
3198;DHT22;1611;49.394;11.136;2022-09-13T02:54:04;12.90;75.90
3198;DHT22;1611;49.394;11.136;2022-09-13T02:56:41;12.90;76.10
3198;DHT22;1611;49.394;11.136;2022-09-13T02:59:14;12.90;76.30
3198;DHT22;1611;49.394;11.136;2022-09-13T03:01:44;12.90;76.40
3198;DHT22;1611;49.394;11.136;2022-09-13T03:04:13;12.90;76.40
3198;DHT22;1611;49.394;11.136;2022-09-13T03:06:40;12.90;76.30
3198;DHT22;1611;49.394;11.136;2022-09-13T03:09:08;12.90;76.40
3198;DHT22;1611;49.394;11.136;2022-09-13T03:11:45;12.90;76.50
3198;DHT22;1611;49.394;11.136;2022-09-13T03:14:22;12.90;76.00
3198;DHT22;1611;49.394;11.136;2022-09-13T03:17:13;12.90;76.10
3198;DHT22;1611;49.394;11.136;2022-09-13T03:20:02;12.90;76.20
3198;DHT22;1611;49.394;11.136;2022-09-13T03:25:45;12.90;76.20
3198;DHT22;1611;49.394;11.136;2022-09-13T03:28:22;12.90;76.20
3198;DHT22;1611;49.394;11.136;2022-09-13T03:30:55;12.90;76.00
3198;DHT22;1611;49.394;11.136;2022-09-13T03:33:30;12.90;76.00
3198;DHT22;1611;49.394;11.136;2022-09-13T03:36:06;12.90;75.90
3198;DHT22;1611;49.394;11.136;2022-09-13T03:38:37;12.90;76.00
3198;DHT22;1611;49.394;11.136;2022-09-13T03:41:08;12.90;76.20
3198;DHT22;1611;49.394;11.136;2022-09-13T03:43:38;12.90;76.20
3198;DHT22;1611;49.394;11.136;2022-09-13T03:46:10;12.90;76.20
3198;DHT22;1611;49.394;11.136;2022-09-13T03:48:40;12.90;76.20
3198;DHT22;1611;49.394;11.136;2022-09-13T03:51:09;12.90;75.90
3198;DHT22;1611;49.394;11.136;2022-09-13T03:53:40;12.90;75.70
3198;DHT22;1611;49.394;11.136;2022-09-13T03:56:12;12.90;75.60
3198;DHT22;1611;49.394;11.136;2022-09-13T03:58:39;12.90;75.50
3198;DHT22;1611;49.394;11.136;2022-09-13T04:01:06;12.90;75.50
3198;DHT22;1611;49.394;11.136;2022-09-13T04:03:34;12.90;75.60
3198;DHT22;1611;49.394;11.136;2022-09-13T04:06:01;12.90;75.70
3198;DHT22;1611;49.394;11.136;2022-09-13T04:08:29;12.90;75.60
3198;DHT22;1611;49.394;11.136;2022-09-13T04:10:56;12.90;75.50
3198;DHT22;1611;49.394;11.136;2022-09-13T04:13:23;12.90;75.40
3198;DHT22;1611;49.394;11.136;2022-09-13T04:15:50;12.90;75.50
3198;DHT22;1611;49.394;11.136;2022-09-13T04:18:16;12.90;75.40
3198;DHT22;1611;49.394;11.136;2022-09-13T04:20:43;12.90;75.40
3198;DHT22;1611;49.394;11.136;2022-09-13T04:23:10;12.80;75.40
3198;DHT22;1611;49.394;11.136;2022-09-13T04:25:38;12.80;75.30
3198;DHT22;1611;49.394;11.136;2022-09-13T04:28:06;12.80;75.40
3198;DHT22;1611;49.394;11.136;2022-09-13T04:30:32;12.80;75.70
3198;DHT22;1611;49.394;11.136;2022-09-13T04:32:59;12.80;75.90
3198;DHT22;1611;49.394;11.136;2022-09-13T04:35:26;12.90;75.90
3198;DHT22;1611;49.394;11.136;2022-09-13T04:37:54;12.90;75.70
3198;DHT22;1611;49.394;11.136;2022-09-13T04:40:22;12.90;75.70
3198;DHT22;1611;49.394;11.136;2022-09-13T04:42:50;12.90;75.90
3198;DHT22;1611;49.394;11.136;2022-09-13T04:45:17;12.90;75.90
3198;DHT22;1611;49.394;11.136;2022-09-13T04:47:44;12.90;75.80
3198;DHT22;1611;49.394;11.136;2022-09-13T04:50:16;12.90;76.00
3198;DHT22;1611;49.394;11.136;2022-09-13T04:52:42;12.90;75.80
3198;DHT22;1611;49.394;11.136;2022-09-13T04:55:09;12.90;75.70
3198;DHT22;1611;49.394;11.136;2022-09-13T04:57:36;12.80;75.40
3198;DHT22;1611;49.394;11.136;2022-09-13T05:00:05;12.80;75.40
3198;DHT22;1611;49.394;11.136;2022-09-13T05:02:33;12.80;75.50
3198;DHT22;1611;49.394;11.136;2022-09-13T05:05:00;12.80;75.80
3198;DHT22;1611;49.394;11.136;2022-09-13T05:07:26;12.90;75.90
3198;DHT22;1611;49.394;11.136;2022-09-13T05:09:53;12.90;75.50
3198;DHT22;1611;49.394;11.136;2022-09-13T05:12:20;12.90;75.60
3198;DHT22;1611;49.394;11.136;2022-09-13T05:14:47;12.90;75.40
3198;DHT22;1611;49.394;11.136;2022-09-13T05:17:15;13.00;75.20
3198;DHT22;1611;49.394;11.136;2022-09-13T05:19:41;13.00;74.80
3198;DHT22;1611;49.394;11.136;2022-09-13T05:22:08;13.00;75.10
3198;DHT22;1611;49.394;11.136;2022-09-13T05:24:35;13.00;75.00
3198;DHT22;1611;49.394;11.136;2022-09-13T05:27:02;12.90;74.90
3198;DHT22;1611;49.394;11.136;2022-09-13T05:29:29;13.00;74.80
3198;DHT22;1611;49.394;11.136;2022-09-13T05:31:55;13.00;74.50
3198;DHT22;1611;49.394;11.136;2022-09-13T05:34:24;13.00;74.40
3198;DHT22;1611;49.394;11.136;2022-09-13T05:36:51;13.10;74.50
3198;DHT22;1611;49.394;11.136;2022-09-13T05:39:17;13.10;74.20
3198;DHT22;1611;49.394;11.136;2022-09-13T05:41:46;13.20;73.90
3198;DHT22;1611;49.394;11.136;2022-09-13T05:44:13;13.30;74.00
3198;DHT22;1611;49.394;11.136;2022-09-13T05:46:40;13.40;73.60
3198;DHT22;1611;49.394;11.136;2022-09-13T05:49:07;13.40;73.50
3198;DHT22;1611;49.394;11.136;2022-09-13T05:51:35;13.50;73.30
3198;DHT22;1611;49.394;11.136;2022-09-13T05:54:02;13.60;73.00
3198;DHT22;1611;49.394;11.136;2022-09-13T05:56:29;13.80;72.80
3198;DHT22;1611;49.394;11.136;2022-09-13T05:58:57;13.90;72.40
3198;DHT22;1611;49.394;11.136;2022-09-13T06:01:26;14.10;71.70
3198;DHT22;1611;49.394;11.136;2022-09-13T06:03:54;14.30;71.00
3198;DHT22;1611;49.394;11.136;2022-09-13T06:06:22;14.40;71.30
3198;DHT22;1611;49.394;11.136;2022-09-13T06:08:52;14.50;70.10
3198;DHT22;1611;49.394;11.136;2022-09-13T06:11:19;14.60;70.10
3198;DHT22;1611;49.394;11.136;2022-09-13T06:13:46;14.70;69.90
3198;DHT22;1611;49.394;11.136;2022-09-13T06:16:13;14.80;69.90
3198;DHT22;1611;49.394;11.136;2022-09-13T06:18:41;14.90;69.60
3198;DHT22;1611;49.394;11.136;2022-09-13T06:21:10;15.00;69.30
3198;DHT22;1611;49.394;11.136;2022-09-13T06:23:36;15.10;68.70
3198;DHT22;1611;49.394;11.136;2022-09-13T06:26:07;15.20;68.20
3198;DHT22;1611;49.394;11.136;2022-09-13T06:28:35;15.20;67.00
3198;DHT22;1611;49.394;11.136;2022-09-13T06:31:03;15.30;66.90
3198;DHT22;1611;49.394;11.136;2022-09-13T06:33:30;15.40;66.50
3198;DHT22;1611;49.394;11.136;2022-09-13T06:35:59;15.50;66.50
3198;DHT22;1611;49.394;11.136;2022-09-13T06:38:26;15.70;66.60
3198;DHT22;1611;49.394;11.136;2022-09-13T06:40:59;15.70;66.30
3198;DHT22;1611;49.394;11.136;2022-09-13T06:43:27;15.90;65.70
3198;DHT22;1611;49.394;11.136;2022-09-13T06:45:58;15.90;64.10
3198;DHT22;1611;49.394;11.136;2022-09-13T06:48:25;16.00;63.80
3198;DHT22;1611;49.394;11.136;2022-09-13T06:50:57;16.10;62.90
3198;DHT22;1611;49.394;11.136;2022-09-13T06:53:24;16.20;62.50
3198;DHT22;1611;49.394;11.136;2022-09-13T06:55:59;16.30;62.80
3198;DHT22;1611;49.394;11.136;2022-09-13T06:58:28;16.40;62.50
3198;DHT22;1611;49.394;11.136;2022-09-13T07:01:04;16.50;62.90
3198;DHT22;1611;49.394;11.136;2022-09-13T07:03:38;16.60;62.00
3198;DHT22;1611;49.394;11.136;2022-09-13T07:06:09;16.70;62.00
3198;DHT22;1611;49.394;11.136;2022-09-13T07:08:37;16.80;61.50
3198;DHT22;1611;49.394;11.136;2022-09-13T07:11:04;16.90;60.80
3198;DHT22;1611;49.394;11.136;2022-09-13T07:13:33;17.00;59.50
3198;DHT22;1611;49.394;11.136;2022-09-13T07:16:04;17.10;58.90
3198;DHT22;1611;49.394;11.136;2022-09-13T07:18:31;17.10;58.00
3198;DHT22;1611;49.394;11.136;2022-09-13T07:20:59;17.20;58.50
3198;DHT22;1611;49.394;11.136;2022-09-13T07:23:28;17.30;58.00
3198;DHT22;1611;49.394;11.136;2022-09-13T07:25:55;17.40;58.20
3198;DHT22;1611;49.394;11.136;2022-09-13T07:28:27;17.40;56.80
3198;DHT22;1611;49.394;11.136;2022-09-13T07:30:56;17.50;57.50
3198;DHT22;1611;49.394;11.136;2022-09-13T07:33:24;17.60;57.50
3198;DHT22;1611;49.394;11.136;2022-09-13T07:35:54;17.70;56.40
3198;DHT22;1611;49.394;11.136;2022-09-13T07:38:21;17.80;55.60
3198;DHT22;1611;49.394;11.136;2022-09-13T07:40:52;17.90;55.20
3198;DHT22;1611;49.394;11.136;2022-09-13T07:43:20;17.90;55.00
3198;DHT22;1611;49.394;11.136;2022-09-13T07:45:47;18.10;55.00
3198;DHT22;1611;49.394;11.136;2022-09-13T07:48:15;18.20;55.50
3198;DHT22;1611;49.394;11.136;2022-09-13T07:50:41;18.30;53.70
3198;DHT22;1611;49.394;11.136;2022-09-13T07:53:08;18.30;53.60
3198;DHT22;1611;49.394;11.136;2022-09-13T07:55:35;18.50;53.80
3198;DHT22;1611;49.394;11.136;2022-09-13T07:58:01;18.40;54.30
3198;DHT22;1611;49.394;11.136;2022-09-13T08:00:29;18.50;54.10
3198;DHT22;1611;49.394;11.136;2022-09-13T08:02:56;18.60;52.90
3198;DHT22;1611;49.394;11.136;2022-09-13T08:05:24;18.70;53.20
3198;DHT22;1611;49.394;11.136;2022-09-13T08:07:50;18.90;53.20
3198;DHT22;1611;49.394;11.136;2022-09-13T08:10:17;19.00;52.30
3198;DHT22;1611;49.394;11.136;2022-09-13T08:12:44;19.10;52.20
3198;DHT22;1611;49.394;11.136;2022-09-13T08:15:10;19.20;50.20
3198;DHT22;1611;49.394;11.136;2022-09-13T08:17:37;19.20;49.20
3198;DHT22;1611;49.394;11.136;2022-09-13T08:20:04;19.30;49.40
3198;DHT22;1611;49.394;11.136;2022-09-13T08:22:33;19.40;49.00
3198;DHT22;1611;49.394;11.136;2022-09-13T08:24:59;19.50;49.10
3198;DHT22;1611;49.394;11.136;2022-09-13T08:27:27;19.50;49.30
3198;DHT22;1611;49.394;11.136;2022-09-13T08:29:54;19.50;49.90
3198;DHT22;1611;49.394;11.136;2022-09-13T08:32:20;19.60;48.30
3198;DHT22;1611;49.394;11.136;2022-09-13T08:34:47;19.60;48.90
3198;DHT22;1611;49.394;11.136;2022-09-13T08:37:14;19.70;50.00
3198;DHT22;1611;49.394;11.136;2022-09-13T08:39:42;19.70;49.80
3198;DHT22;1611;49.394;11.136;2022-09-13T08:42:30;19.80;49.50
3198;DHT22;1611;49.394;11.136;2022-09-13T08:45:02;19.80;50.20
3198;DHT22;1611;49.394;11.136;2022-09-13T08:47:40;19.90;47.60
3198;DHT22;1611;49.394;11.136;2022-09-13T08:50:14;20.00;48.30
3198;DHT22;1611;49.394;11.136;2022-09-13T08:52:53;20.30;47.40
3198;DHT22;1611;49.394;11.136;2022-09-13T08:55:39;20.40;45.60
3198;DHT22;1611;49.394;11.136;2022-09-13T09:01:02;20.60;43.40
3198;DHT22;1611;49.394;11.136;2022-09-13T09:03:39;20.70;45.40
3198;DHT22;1611;49.394;11.136;2022-09-13T09:06:11;20.80;42.50
3198;DHT22;1611;49.394;11.136;2022-09-13T09:08:43;21.10;42.10
3198;DHT22;1611;49.394;11.136;2022-09-13T09:11:25;21.20;42.30
3198;DHT22;1611;49.394;11.136;2022-09-13T09:13:58;21.40;42.60
3198;DHT22;1611;49.394;11.136;2022-09-13T09:16:32;21.40;41.80
3198;DHT22;1611;49.394;11.136;2022-09-13T09:19:08;21.50;41.90
3198;DHT22;1611;49.394;11.136;2022-09-13T09:21:37;21.60;42.20
3198;DHT22;1611;49.394;11.136;2022-09-13T09:24:04;21.60;42.10
3198;DHT22;1611;49.394;11.136;2022-09-13T09:26:32;21.70;42.50
3198;DHT22;1611;49.394;11.136;2022-09-13T09:29:04;21.70;42.60
3198;DHT22;1611;49.394;11.136;2022-09-13T09:31:42;21.80;40.90
3198;DHT22;1611;49.394;11.136;2022-09-13T09:34:17;21.80;42.20
3198;DHT22;1611;49.394;11.136;2022-09-13T09:36:52;21.80;42.60
3198;DHT22;1611;49.394;11.136;2022-09-13T09:39:21;21.80;41.20
3198;DHT22;1611;49.394;11.136;2022-09-13T09:41:54;21.80;40.10
3198;DHT22;1611;49.394;11.136;2022-09-13T09:44:23;21.80;39.60
3198;DHT22;1611;49.394;11.136;2022-09-13T09:46:55;21.80;41.30
3198;DHT22;1611;49.394;11.136;2022-09-13T09:49:26;21.70;44.10
3198;DHT22;1611;49.394;11.136;2022-09-13T09:52:17;21.60;42.40
3198;DHT22;1611;49.394;11.136;2022-09-13T09:54:47;21.60;42.90
3198;DHT22;1611;49.394;11.136;2022-09-13T09:57:16;21.60;42.90
3198;DHT22;1611;49.394;11.136;2022-09-13T09:59:45;21.50;42.00
3198;DHT22;1611;49.394;11.136;2022-09-13T10:02:15;21.50;42.60
3198;DHT22;1611;49.394;11.136;2022-09-13T10:04:42;21.50;43.30
3198;DHT22;1611;49.394;11.136;2022-09-13T10:07:25;21.60;42.00
3198;DHT22;1611;49.394;11.136;2022-09-13T10:09:57;21.70;40.90
3198;DHT22;1611;49.394;11.136;2022-09-13T10:12:32;21.70;40.30
3198;DHT22;1611;49.394;11.136;2022-09-13T10:15:14;21.60;39.60
3198;DHT22;1611;49.394;11.136;2022-09-13T10:17:43;21.50;40.50
3198;DHT22;1611;49.394;11.136;2022-09-13T10:20:25;21.40;41.70
3198;DHT22;1611;49.394;11.136;2022-09-13T10:23:16;21.40;41.20
3198;DHT22;1611;49.394;11.136;2022-09-13T10:25:45;21.50;41.00
3198;DHT22;1611;49.394;11.136;2022-09-13T10:28:21;21.40;41.00
3198;DHT22;1611;49.394;11.136;2022-09-13T10:30:53;21.50;42.20
3198;DHT22;1611;49.394;11.136;2022-09-13T10:33:25;21.50;42.60
3198;DHT22;1611;49.394;11.136;2022-09-13T10:35:54;21.60;43.40
3198;DHT22;1611;49.394;11.136;2022-09-13T10:38:27;21.80;43.10
3198;DHT22;1611;49.394;11.136;2022-09-13T10:40:55;22.10;42.40
3198;DHT22;1611;49.394;11.136;2022-09-13T10:43:26;22.20;40.30
3198;DHT22;1611;49.394;11.136;2022-09-13T10:45:53;22.40;42.20
3198;DHT22;1611;49.394;11.136;2022-09-13T10:48:21;22.60;41.50
3198;DHT22;1611;49.394;11.136;2022-09-13T10:51:06;22.70;41.20
3198;DHT22;1611;49.394;11.136;2022-09-13T10:53:36;22.70;39.00
3198;DHT22;1611;49.394;11.136;2022-09-13T10:56:04;22.70;39.50
3198;DHT22;1611;49.394;11.136;2022-09-13T10:58:32;22.70;39.10
3198;DHT22;1611;49.394;11.136;2022-09-13T11:06:57;23.10;36.80
3198;DHT22;1611;49.394;11.136;2022-09-13T11:09:33;23.40;35.70
3198;DHT22;1611;49.394;11.136;2022-09-13T11:12:07;23.50;35.70
3198;DHT22;1611;49.394;11.136;2022-09-13T11:14:47;23.80;34.50
3198;DHT22;1611;49.394;11.136;2022-09-13T11:17:25;24.00;34.60
3198;DHT22;1611;49.394;11.136;2022-09-13T11:20:05;24.20;34.90
3198;DHT22;1611;49.394;11.136;2022-09-13T11:22:52;24.40;36.00
3198;DHT22;1611;49.394;11.136;2022-09-13T11:25:32;24.70;35.40
3198;DHT22;1611;49.394;11.136;2022-09-13T11:28:09;24.60;31.70
3198;DHT22;1611;49.394;11.136;2022-09-13T11:30:49;24.40;34.20
3198;DHT22;1611;49.394;11.136;2022-09-13T11:33:30;24.20;34.50
3198;DHT22;1611;49.394;11.136;2022-09-13T11:36:13;24.20;34.50
3198;DHT22;1611;49.394;11.136;2022-09-13T11:38:49;24.20;34.00
3198;DHT22;1611;49.394;11.136;2022-09-13T11:41:26;24.00;32.50
3198;DHT22;1611;49.394;11.136;2022-09-13T11:44:13;23.90;33.90
3198;DHT22;1611;49.394;11.136;2022-09-13T11:46:50;24.10;34.80
3198;DHT22;1611;49.394;11.136;2022-09-13T11:49:41;24.40;33.40
3198;DHT22;1611;49.394;11.136;2022-09-13T11:52:17;24.50;34.30
3198;DHT22;1611;49.394;11.136;2022-09-13T11:55:00;24.40;33.30
3198;DHT22;1611;49.394;11.136;2022-09-13T11:57:31;24.50;31.80
3198;DHT22;1611;49.394;11.136;2022-09-13T12:00:02;24.40;33.40
3198;DHT22;1611;49.394;11.136;2022-09-13T12:02:36;24.20;34.20
3198;DHT22;1611;49.394;11.136;2022-09-13T12:05:08;24.00;35.30
3198;DHT22;1611;49.394;11.136;2022-09-13T12:07:42;23.70;34.90
3198;DHT22;1611;49.394;11.136;2022-09-13T12:10:15;23.60;35.30
3198;DHT22;1611;49.394;11.136;2022-09-13T12:12:43;23.50;36.60
3198;DHT22;1611;49.394;11.136;2022-09-13T12:15:15;23.40;37.90
3198;DHT22;1611;49.394;11.136;2022-09-13T12:17:47;23.30;38.00
3198;DHT22;1611;49.394;11.136;2022-09-13T12:20:22;23.30;38.50
3198;DHT22;1611;49.394;11.136;2022-09-13T12:22:53;23.20;38.90
3198;DHT22;1611;49.394;11.136;2022-09-13T12:25:23;23.10;40.50
3198;DHT22;1611;49.394;11.136;2022-09-13T12:27:56;23.00;40.50
3198;DHT22;1611;49.394;11.136;2022-09-13T12:30:31;22.80;42.10
3198;DHT22;1611;49.394;11.136;2022-09-13T12:33:05;22.70;44.10
3198;DHT22;1611;49.394;11.136;2022-09-13T12:35:35;22.60;44.80
3198;DHT22;1611;49.394;11.136;2022-09-13T12:38:24;22.50;45.90
3198;DHT22;1611;49.394;11.136;2022-09-13T12:41:20;22.40;46.20
3198;DHT22;1611;49.394;11.136;2022-09-13T12:44:20;22.20;47.50
3198;DHT22;1611;49.394;11.136;2022-09-13T12:47:00;22.10;47.10
3198;DHT22;1611;49.394;11.136;2022-09-13T12:49:43;22.10;48.50
3198;DHT22;1611;49.394;11.136;2022-09-13T12:52:25;22.00;49.10
3198;DHT22;1611;49.394;11.136;2022-09-13T12:55:26;21.90;50.10
3198;DHT22;1611;49.394;11.136;2022-09-13T12:58:07;21.90;50.70
3198;DHT22;1611;49.394;11.136;2022-09-13T13:00:46;21.80;51.20
3198;DHT22;1611;49.394;11.136;2022-09-13T13:03:27;21.80;51.50
3198;DHT22;1611;49.394;11.136;2022-09-13T13:06:10;21.70;51.90
3198;DHT22;1611;49.394;11.136;2022-09-13T13:08:53;21.70;52.30
3198;DHT22;1611;49.394;11.136;2022-09-13T13:11:23;21.70;52.60
3198;DHT22;1611;49.394;11.136;2022-09-13T13:13:56;21.60;53.00
3198;DHT22;1611;49.394;11.136;2022-09-13T13:16:27;21.60;52.90
3198;DHT22;1611;49.394;11.136;2022-09-13T13:18:56;21.60;53.30
3198;DHT22;1611;49.394;11.136;2022-09-13T13:21:33;21.50;54.20
3198;DHT22;1611;49.394;11.136;2022-09-13T13:24:37;21.60;54.40
3198;DHT22;1611;49.394;11.136;2022-09-13T13:27:36;21.60;54.10
3198;DHT22;1611;49.394;11.136;2022-09-13T13:33:25;21.60;53.10
3198;DHT22;1611;49.394;11.136;2022-09-13T13:35:53;21.80;52.90
3198;DHT22;1611;49.394;11.136;2022-09-13T13:38:40;22.00;53.10
3198;DHT22;1611;49.394;11.136;2022-09-13T13:48:08;22.50;51.30
3198;DHT22;1611;49.394;11.136;2022-09-13T13:53:44;22.60;50.10
3198;DHT22;1611;49.394;11.136;2022-09-13T13:56:31;22.70;49.30
3198;DHT22;1611;49.394;11.136;2022-09-13T13:59:03;22.80;49.70
3198;DHT22;1611;49.394;11.136;2022-09-13T14:01:35;22.80;49.20
3198;DHT22;1611;49.394;11.136;2022-09-13T14:07:12;22.80;50.20
3198;DHT22;1611;49.394;11.136;2022-09-13T14:09:49;22.90;50.00
3198;DHT22;1611;49.394;11.136;2022-09-13T14:12:31;22.80;51.20
3198;DHT22;1611;49.394;11.136;2022-09-13T14:15:13;22.80;51.50
3198;DHT22;1611;49.394;11.136;2022-09-13T14:18:00;22.80;51.40
3198;DHT22;1611;49.394;11.136;2022-09-13T14:20:28;22.80;52.20
3198;DHT22;1611;49.394;11.136;2022-09-13T14:23:10;22.80;52.40
3198;DHT22;1611;49.394;11.136;2022-09-13T14:25:38;22.80;52.90
3198;DHT22;1611;49.394;11.136;2022-09-13T14:28:06;22.80;52.90
3198;DHT22;1611;49.394;11.136;2022-09-13T14:30:35;22.80;52.60
3198;DHT22;1611;49.394;11.136;2022-09-13T14:33:03;22.90;52.70
3198;DHT22;1611;49.394;11.136;2022-09-13T14:35:33;23.00;53.20
3198;DHT22;1611;49.394;11.136;2022-09-13T14:38:11;23.30;52.50
3198;DHT22;1611;49.394;11.136;2022-09-13T14:40:40;23.30;51.20
3198;DHT22;1611;49.394;11.136;2022-09-13T14:43:14;23.40;50.80
3198;DHT22;1611;49.394;11.136;2022-09-13T14:45:42;23.50;50.80
3198;DHT22;1611;49.394;11.136;2022-09-13T14:48:16;23.50;51.10
3198;DHT22;1611;49.394;11.136;2022-09-13T14:50:48;23.50;45.70
3198;DHT22;1611;49.394;11.136;2022-09-13T14:53:19;23.60;47.80
3198;DHT22;1611;49.394;11.136;2022-09-13T14:55:51;23.60;48.00
3198;DHT22;1611;49.394;11.136;2022-09-13T14:58:21;23.60;48.60
3198;DHT22;1611;49.394;11.136;2022-09-13T15:00:51;23.50;49.80
3198;DHT22;1611;49.394;11.136;2022-09-13T15:03:20;23.50;50.50
3198;DHT22;1611;49.394;11.136;2022-09-13T15:05:51;23.60;50.00
3198;DHT22;1611;49.394;11.136;2022-09-13T15:08:25;23.60;48.80
3198;DHT22;1611;49.394;11.136;2022-09-13T15:10:55;23.70;48.40
3198;DHT22;1611;49.394;11.136;2022-09-13T15:13:22;23.60;48.70
3198;DHT22;1611;49.394;11.136;2022-09-13T15:15:49;23.50;49.50
3198;DHT22;1611;49.394;11.136;2022-09-13T15:18:24;23.40;49.00
3198;DHT22;1611;49.394;11.136;2022-09-13T15:20:53;23.30;49.70
3198;DHT22;1611;49.394;11.136;2022-09-13T15:23:25;23.30;50.00
3198;DHT22;1611;49.394;11.136;2022-09-13T15:25:56;23.20;50.20
3198;DHT22;1611;49.394;11.136;2022-09-13T15:28:27;23.20;51.10
3198;DHT22;1611;49.394;11.136;2022-09-13T15:30:56;23.10;51.00
3198;DHT22;1611;49.394;11.136;2022-09-13T15:33:25;23.00;51.50
3198;DHT22;1611;49.394;11.136;2022-09-13T15:36:12;22.90;52.20
3198;DHT22;1611;49.394;11.136;2022-09-13T15:38:56;22.90;52.60
3198;DHT22;1611;49.394;11.136;2022-09-13T15:41:28;23.00;52.50
3198;DHT22;1611;49.394;11.136;2022-09-13T15:43:57;22.90;52.50
3198;DHT22;1611;49.394;11.136;2022-09-13T15:46:24;22.90;53.60
3198;DHT22;1611;49.394;11.136;2022-09-13T15:48:52;22.80;53.30
3198;DHT22;1611;49.394;11.136;2022-09-13T15:51:20;22.60;54.20
3198;DHT22;1611;49.394;11.136;2022-09-13T15:53:47;22.60;54.40
3198;DHT22;1611;49.394;11.136;2022-09-13T15:56:17;22.60;55.20
3198;DHT22;1611;49.394;11.136;2022-09-13T15:58:45;22.60;53.80
3198;DHT22;1611;49.394;11.136;2022-09-13T16:01:13;22.60;53.90
3198;DHT22;1611;49.394;11.136;2022-09-13T16:03:40;22.50;53.40
3198;DHT22;1611;49.394;11.136;2022-09-13T16:06:08;22.50;53.40
3198;DHT22;1611;49.394;11.136;2022-09-13T16:08:35;22.40;53.40
3198;DHT22;1611;49.394;11.136;2022-09-13T16:11:02;22.40;53.80
3198;DHT22;1611;49.394;11.136;2022-09-13T16:13:29;22.30;54.50
3198;DHT22;1611;49.394;11.136;2022-09-13T16:15:58;22.40;54.10
3198;DHT22;1611;49.394;11.136;2022-09-13T16:18:25;22.40;53.70
3198;DHT22;1611;49.394;11.136;2022-09-13T16:20:52;22.30;53.80
3198;DHT22;1611;49.394;11.136;2022-09-13T16:23:18;22.30;53.90
3198;DHT22;1611;49.394;11.136;2022-09-13T16:25:45;22.30;54.30
3198;DHT22;1611;49.394;11.136;2022-09-13T16:28:16;22.20;54.90
3198;DHT22;1611;49.394;11.136;2022-09-13T16:30:45;22.10;55.40
3198;DHT22;1611;49.394;11.136;2022-09-13T16:33:13;22.10;56.10
3198;DHT22;1611;49.394;11.136;2022-09-13T16:35:40;22.00;56.60
3198;DHT22;1611;49.394;11.136;2022-09-13T16:38:08;21.90;56.50
3198;DHT22;1611;49.394;11.136;2022-09-13T16:40:37;21.80;56.80
3198;DHT22;1611;49.394;11.136;2022-09-13T16:43:04;21.70;57.20
3198;DHT22;1611;49.394;11.136;2022-09-13T16:45:30;21.60;57.90